sensor_id;sensor_type;location;lat;lon;timestamp;pressure;altitude;pressure_sealevel;temperature;humidity
56400;BME280;42298;53.638;9.876;2023-12-20T00:00:35;107170.41;;;6.48;27.80
56400;BME280;42298;53.638;9.876;2023-12-20T00:03:00;107134.16;;;6.46;27.98
56400;BME280;42298;53.638;9.876;2023-12-20T00:05:25;107089.00;;;6.39;28.10
56400;BME280;42298;53.638;9.876;2023-12-20T00:07:50;107076.66;;;6.40;28.06
56400;BME280;42298;53.638;9.876;2023-12-20T00:10:16;107055.44;;;6.38;27.98
56400;BME280;42298;53.638;9.876;2023-12-20T00:12:41;107035.06;;;6.34;28.03
56400;BME280;42298;53.638;9.876;2023-12-20T00:15:08;107004.97;;;6.31;28.22
56400;BME280;42298;53.638;9.876;2023-12-20T00:17:33;106983.75;;;6.28;28.23
56400;BME280;42298;53.638;9.876;2023-12-20T00:19:59;106990.81;;;6.29;27.88
56400;BME280;42298;53.638;9.876;2023-12-20T00:22:24;107005.84;;;6.27;27.90
56400;BME280;42298;53.638;9.876;2023-12-20T00:24:49;107041.22;;;6.32;27.60
56400;BME280;42298;53.638;9.876;2023-12-20T00:27:14;107064.19;;;6.31;27.55
56400;BME280;42298;53.638;9.876;2023-12-20T00:29:40;107065.91;;;6.29;27.91
56400;BME280;42298;53.638;9.876;2023-12-20T00:32:08;107059.63;;;6.22;27.78
56400;BME280;42298;53.638;9.876;2023-12-20T00:34:33;107072.00;;;6.24;27.67
56400;BME280;42298;53.638;9.876;2023-12-20T00:36:58;107071.94;;;6.19;27.66
56400;BME280;42298;53.638;9.876;2023-12-20T00:39:23;107101.97;;;6.19;27.59
56400;BME280;42298;53.638;9.876;2023-12-20T00:41:50;107159.44;;;6.25;27.38
56400;BME280;42298;53.638;9.876;2023-12-20T00:44:15;107221.38;;;6.32;27.46
56400;BME280;42298;53.638;9.876;2023-12-20T00:46:40;107261.16;;;6.35;27.37
56400;BME280;42298;53.638;9.876;2023-12-20T00:49:05;107291.19;;;6.35;27.26
56400;BME280;42298;53.638;9.876;2023-12-20T00:51:31;107323.03;;;6.37;27.15
56400;BME280;42298;53.638;9.876;2023-12-20T00:53:56;107352.25;;;6.40;27.12
56400;BME280;42298;53.638;9.876;2023-12-20T00:56:22;107366.31;;;6.37;27.28
56400;BME280;42298;53.638;9.876;2023-12-20T00:58:47;107369.88;;;6.38;27.21
56400;BME280;42298;53.638;9.876;2023-12-20T01:01:12;107325.50;;;6.28;27.55
56400;BME280;42298;53.638;9.876;2023-12-20T01:03:38;107294.59;;;6.27;27.36
56400;BME280;42298;53.638;9.876;2023-12-20T01:06:04;107263.53;;;6.19;27.67
56400;BME280;42298;53.638;9.876;2023-12-20T01:08:31;107257.34;;;6.19;27.59
56400;BME280;42298;53.638;9.876;2023-12-20T01:10:57;107248.53;;;6.18;27.46
56400;BME280;42298;53.638;9.876;2023-12-20T01:13:22;107220.19;;;6.14;27.68
56400;BME280;42298;53.638;9.876;2023-12-20T01:15:47;107206.06;;;6.15;27.77
56400;BME280;42298;53.638;9.876;2023-12-20T01:18:13;107186.56;;;6.10;27.70
56400;BME280;42298;53.638;9.876;2023-12-20T01:20:38;107174.28;;;6.14;27.60
56400;BME280;42298;53.638;9.876;2023-12-20T01:23:04;107168.06;;;6.12;27.81
56400;BME280;42298;53.638;9.876;2023-12-20T01:25:29;107163.69;;;6.14;27.70
56400;BME280;42298;53.638;9.876;2023-12-20T01:27:54;107140.69;;;6.13;27.76
56400;BME280;42298;53.638;9.876;2023-12-20T01:30:20;107106.19;;;6.08;27.71
56400;BME280;42298;53.638;9.876;2023-12-20T01:32:45;107099.13;;;6.09;27.80
56400;BME280;42298;53.638;9.876;2023-12-20T01:35:10;107064.69;;;6.06;27.81
56400;BME280;42298;53.638;9.876;2023-12-20T01:37:37;107053.19;;;6.05;28.02
56400;BME280;42298;53.638;9.876;2023-12-20T01:40:03;107040.00;;;6.07;28.10
56400;BME280;42298;53.638;9.876;2023-12-20T01:42:28;107020.53;;;6.05;27.85
56400;BME280;42298;53.638;9.876;2023-12-20T01:44:54;107009.88;;;6.01;27.75
56400;BME280;42298;53.638;9.876;2023-12-20T01:47:20;107010.75;;;6.02;28.10
56400;BME280;42298;53.638;9.876;2023-12-20T01:49:46;107013.41;;;6.02;27.90
56400;BME280;42298;53.638;9.876;2023-12-20T01:52:12;107023.19;;;6.05;28.04
56400;BME280;42298;53.638;9.876;2023-12-20T01:54:38;107013.47;;;6.05;27.75
56400;BME280;42298;53.638;9.876;2023-12-20T01:57:06;107002.78;;;5.99;27.83
56400;BME280;42298;53.638;9.876;2023-12-20T01:59:32;107032.00;;;6.05;27.76
56400;BME280;42298;53.638;9.876;2023-12-20T02:01:59;107053.19;;;6.05;27.65
56400;BME280;42298;53.638;9.876;2023-12-20T02:04:25;107044.31;;;6.01;27.71
56400;BME280;42298;53.638;9.876;2023-12-20T02:06:52;107039.88;;;6.02;27.86
56400;BME280;42298;53.638;9.876;2023-12-20T02:09:18;107036.34;;;6.01;27.54
56400;BME280;42298;53.638;9.876;2023-12-20T02:11:43;107048.75;;;6.03;27.62
56400;BME280;42298;53.638;9.876;2023-12-20T02:14:08;107060.22;;;6.03;27.64
56400;BME280;42298;53.638;9.876;2023-12-20T02:16:34;107054.91;;;6.00;27.57
56400;BME280;42298;53.638;9.876;2023-12-20T02:18:59;107073.41;;;5.98;27.58
56400;BME280;42298;53.638;9.876;2023-12-20T02:21:25;107082.25;;;6.02;27.52
56400;BME280;42298;53.638;9.876;2023-12-20T02:23:56;107089.25;;;5.97;27.62
56400;BME280;42298;53.638;9.876;2023-12-20T02:26:22;107110.50;;;6.01;27.36
56400;BME280;42298;53.638;9.876;2023-12-20T02:28:47;107150.31;;;6.06;27.33
56400;BME280;42298;53.638;9.876;2023-12-20T02:31:12;107203.34;;;6.09;27.19
56400;BME280;42298;53.638;9.876;2023-12-20T02:33:38;107239.63;;;6.15;27.26
56400;BME280;42298;53.638;9.876;2023-12-20T02:36:06;107236.97;;;6.13;27.08
56400;BME280;42298;53.638;9.876;2023-12-20T02:38:31;107259.94;;;6.14;27.08
56400;BME280;42298;53.638;9.876;2023-12-20T02:40:57;107272.38;;;6.18;27.17
56400;BME280;42298;53.638;9.876;2023-12-20T02:43:22;107280.41;;;6.23;27.34
56400;BME280;42298;53.638;9.876;2023-12-20T02:45:47;107257.41;;;6.20;27.28
56400;BME280;42298;53.638;9.876;2023-12-20T02:48:13;107256.50;;;6.21;27.40
56400;BME280;42298;53.638;9.876;2023-12-20T02:50:38;107245.03;;;6.21;27.23
56400;BME280;42298;53.638;9.876;2023-12-20T02:53:05;107238.00;;;6.23;27.23
56400;BME280;42298;53.638;9.876;2023-12-20T02:55:30;107223.97;;;6.29;27.43
56400;BME280;42298;53.638;9.876;2023-12-20T02:57:57;107176.19;;;6.22;27.42
56400;BME280;42298;53.638;9.876;2023-12-20T03:00:22;107156.72;;;6.22;27.47
56400;BME280;42298;53.638;9.876;2023-12-20T03:02:48;107131.16;;;6.22;27.39
56400;BME280;42298;53.638;9.876;2023-12-20T03:05:13;107126.78;;;6.25;27.23
56400;BME280;42298;53.638;9.876;2023-12-20T03:07:38;107130.34;;;6.27;27.39
56400;BME280;42298;53.638;9.876;2023-12-20T03:10:04;107111.72;;;6.24;27.63
56400;BME280;42298;53.638;9.876;2023-12-20T03:12:33;107068.44;;;6.21;27.66
56400;BME280;42298;53.638;9.876;2023-12-20T03:14:58;107038.38;;;6.18;27.79
56400;BME280;42298;53.638;9.876;2023-12-20T03:17:24;107018.03;;;6.17;27.74
56400;BME280;42298;53.638;9.876;2023-12-20T03:19:49;106984.44;;;6.13;27.73
56400;BME280;42298;53.638;9.876;2023-12-20T03:22:14;106966.78;;;6.12;27.63
56400;BME280;42298;53.638;9.876;2023-12-20T03:24:40;106974.81;;;6.19;27.59
56400;BME280;42298;53.638;9.876;2023-12-20T03:27:05;106986.31;;;6.21;27.59
56400;BME280;42298;53.638;9.876;2023-12-20T03:29:30;106961.59;;;6.21;27.56
56400;BME280;42298;53.638;9.876;2023-12-20T03:31:55;106960.66;;;6.17;27.60
56400;BME280;42298;53.638;9.876;2023-12-20T03:34:21;106956.28;;;6.21;27.60
56400;BME280;42298;53.638;9.876;2023-12-20T03:36:46;106959.81;;;6.21;27.67
56400;BME280;42298;53.638;9.876;2023-12-20T03:39:13;106941.28;;;6.21;27.75
56400;BME280;42298;53.638;9.876;2023-12-20T03:41:38;106931.50;;;6.17;27.65
56400;BME280;42298;53.638;9.876;2023-12-20T03:44:03;106896.19;;;6.17;27.63
56400;BME280;42298;53.638;9.876;2023-12-20T03:46:29;106866.09;;;6.09;27.80
56400;BME280;42298;53.638;9.876;2023-12-20T03:48:54;106877.63;;;6.15;27.59
56400;BME280;42298;53.638;9.876;2023-12-20T03:51:19;106877.63;;;6.15;27.84
56400;BME280;42298;53.638;9.876;2023-12-20T03:53:44;106868.84;;;6.16;27.85
56400;BME280;42298;53.638;9.876;2023-12-20T03:56:10;106863.56;;;6.19;27.86
56400;BME280;42298;53.638;9.876;2023-12-20T03:58:35;106850.31;;;6.18;27.72
56400;BME280;42298;53.638;9.876;2023-12-20T04:01:00;106834.41;;;6.16;27.54
56400;BME280;42298;53.638;9.876;2023-12-20T04:03:26;106858.31;;;6.22;27.60
56400;BME280;42298;53.638;9.876;2023-12-20T04:05:51;106863.59;;;6.21;27.58
56400;BME280;42298;53.638;9.876;2023-12-20T04:08:16;106838.81;;;6.17;27.57
56400;BME280;42298;53.638;9.876;2023-12-20T04:10:42;106839.69;;;6.15;27.69
56400;BME280;42298;53.638;9.876;2023-12-20T04:13:07;106839.59;;;6.07;27.68
56400;BME280;42298;53.638;9.876;2023-12-20T04:15:32;106871.41;;;6.10;27.43
56400;BME280;42298;53.638;9.876;2023-12-20T04:17:58;106904.97;;;6.13;27.34
56400;BME280;42298;53.638;9.876;2023-12-20T04:20:23;106935.84;;;6.11;27.19
56400;BME280;42298;53.638;9.876;2023-12-20T04:22:48;106965.88;;;6.13;27.14
56400;BME280;42298;53.638;9.876;2023-12-20T04:25:14;106987.94;;;6.10;27.32
56400;BME280;42298;53.638;9.876;2023-12-20T04:27:39;106987.06;;;6.10;27.37
56400;BME280;42298;53.638;9.876;2023-12-20T04:30:05;106997.63;;;6.07;27.30
56400;BME280;42298;53.638;9.876;2023-12-20T04:32:31;107022.34;;;6.07;27.11
56400;BME280;42298;53.638;9.876;2023-12-20T04:34:57;107048.84;;;6.10;27.22
56400;BME280;42298;53.638;9.876;2023-12-20T04:37:22;107078.88;;;6.11;27.13
56400;BME280;42298;53.638;9.876;2023-12-20T04:39:48;107093.94;;;6.13;26.97
56400;BME280;42298;53.638;9.876;2023-12-20T04:42:14;107102.78;;;6.15;26.93
56400;BME280;42298;53.638;9.876;2023-12-20T04:44:39;107093.00;;;6.10;27.01
56400;BME280;42298;53.638;9.876;2023-12-20T04:47:05;107097.44;;;6.12;27.13
56400;BME280;42298;53.638;9.876;2023-12-20T04:49:30;107072.69;;;6.10;27.18
56400;BME280;42298;53.638;9.876;2023-12-20T04:51:55;107062.06;;;6.09;27.08
56400;BME280;42298;53.638;9.876;2023-12-20T04:54:21;107085.13;;;6.14;27.28
56400;BME280;42298;53.638;9.876;2023-12-20T04:56:46;107092.25;;;6.18;27.00
56400;BME280;42298;53.638;9.876;2023-12-20T04:59:12;107087.84;;;6.20;26.93
56400;BME280;42298;53.638;9.876;2023-12-20T05:01:38;107070.16;;;6.19;27.27
56400;BME280;42298;53.638;9.876;2023-12-20T05:04:03;107053.44;;;6.22;27.02
56400;BME280;42298;53.638;9.876;2023-12-20T05:06:29;107056.09;;;6.24;27.07
56400;BME280;42298;53.638;9.876;2023-12-20T05:08:54;107077.44;;;6.31;27.02
56400;BME280;42298;53.638;9.876;2023-12-20T05:11:20;107073.00;;;6.32;27.14
56400;BME280;42298;53.638;9.876;2023-12-20T05:13:46;107051.81;;;6.32;27.29
56400;BME280;42298;53.638;9.876;2023-12-20T05:16:11;106981.97;;;6.25;27.30
56400;BME280;42298;53.638;9.876;2023-12-20T05:18:39;106974.91;;;6.29;27.44
56400;BME280;42298;53.638;9.876;2023-12-20T05:21:04;106967.88;;;6.31;27.33
56400;BME280;42298;53.638;9.876;2023-12-20T05:23:29;106960.00;;;6.35;27.20
56400;BME280;42298;53.638;9.876;2023-12-20T05:25:55;106984.88;;;6.48;27.30
56400;BME280;42298;53.638;9.876;2023-12-20T05:28:20;106950.38;;;6.43;27.44
56400;BME280;42298;53.638;9.876;2023-12-20T05:30:45;106930.97;;;6.45;27.11
56400;BME280;42298;53.638;9.876;2023-12-20T05:33:11;106918.59;;;6.42;27.29
56400;BME280;42298;53.638;9.876;2023-12-20T05:35:36;106919.47;;;6.44;27.10
56400;BME280;42298;53.638;9.876;2023-12-20T05:38:01;106917.69;;;6.41;27.21
56400;BME280;42298;53.638;9.876;2023-12-20T05:40:27;106913.22;;;6.37;27.00
56400;BME280;42298;53.638;9.876;2023-12-20T05:42:52;106913.16;;;6.33;27.26
56400;BME280;42298;53.638;9.876;2023-12-20T05:45:17;106971.63;;;6.47;26.86
56400;BME280;42298;53.638;9.876;2023-12-20T05:47:43;106990.13;;;6.43;26.89
56400;BME280;42298;53.638;9.876;2023-12-20T05:50:08;106992.78;;;6.43;27.15
56400;BME280;42298;53.638;9.876;2023-12-20T05:52:34;106998.09;;;6.43;27.16
56400;BME280;42298;53.638;9.876;2023-12-20T05:54:59;106980.34;;;6.39;26.95
56400;BME280;42298;53.638;9.876;2023-12-20T05:57:26;106970.66;;;6.38;27.21
56400;BME280;42298;53.638;9.876;2023-12-20T05:59:52;106975.97;;;6.40;27.09
56400;BME280;42298;53.638;9.876;2023-12-20T06:02:17;106997.19;;;6.40;26.93
56400;BME280;42298;53.638;9.876;2023-12-20T06:04:42;107001.56;;;6.38;26.85
56400;BME280;42298;53.638;9.876;2023-12-20T06:07:08;107023.69;;;6.43;26.96
56400;BME280;42298;53.638;9.876;2023-12-20T06:09:36;107041.34;;;6.41;27.01
56400;BME280;42298;53.638;9.876;2023-12-20T06:12:01;107046.63;;;6.41;26.89
56400;BME280;42298;53.638;9.876;2023-12-20T06:14:27;107051.09;;;6.42;26.92
56400;BME280;42298;53.638;9.876;2023-12-20T06:16:52;107038.72;;;6.44;26.90
56400;BME280;42298;53.638;9.876;2023-12-20T06:19:17;107015.72;;;6.41;27.05
56400;BME280;42298;53.638;9.876;2023-12-20T06:21:42;107014.88;;;6.42;27.18
56400;BME280;42298;53.638;9.876;2023-12-20T06:24:10;107033.59;;;6.56;26.92
56400;BME280;42298;53.638;9.876;2023-12-20T06:26:35;107015.03;;;6.56;27.06
56400;BME280;42298;53.638;9.876;2023-12-20T06:29:01;106962.91;;;6.55;27.26
56400;BME280;42298;53.638;9.876;2023-12-20T06:31:26;106899.22;;;6.51;27.50
56400;BME280;42298;53.638;9.876;2023-12-20T06:33:51;106834.72;;;6.47;27.44
56400;BME280;42298;53.638;9.876;2023-12-20T06:36:22;106782.63;;;6.49;27.50
56400;BME280;42298;53.638;9.876;2023-12-20T06:38:48;106752.59;;;6.49;27.62
56400;BME280;42298;53.638;9.876;2023-12-20T06:41:15;106696.94;;;6.50;27.78
56400;BME280;42298;53.638;9.876;2023-12-20T06:43:41;106667.81;;;6.52;27.70
56400;BME280;42298;53.638;9.876;2023-12-20T06:46:07;106608.59;;;6.47;27.82
56400;BME280;42298;53.638;9.876;2023-12-20T06:48:32;106598.00;;;6.50;27.86
56400;BME280;42298;53.638;9.876;2023-12-20T06:50:59;106583.91;;;6.54;27.83
56400;BME280;42298;53.638;9.876;2023-12-20T06:53:25;106563.59;;;6.54;28.01
56400;BME280;42298;53.638;9.876;2023-12-20T06:55:50;106506.16;;;6.47;28.03
56400;BME280;42298;53.638;9.876;2023-12-20T06:58:15;106486.75;;;6.51;27.84
56400;BME280;42298;53.638;9.876;2023-12-20T07:00:42;106480.53;;;6.51;27.72
56400;BME280;42298;53.638;9.876;2023-12-20T07:03:09;106475.22;;;6.51;27.93
56400;BME280;42298;53.638;9.876;2023-12-20T07:05:34;106473.50;;;6.56;27.78
56400;BME280;42298;53.638;9.876;2023-12-20T07:08:01;106462.88;;;6.53;27.84
56400;BME280;42298;53.638;9.876;2023-12-20T07:10:26;106439.91;;;6.52;28.03
56400;BME280;42298;53.638;9.876;2023-12-20T07:12:51;106418.72;;;6.55;28.05
56400;BME280;42298;53.638;9.876;2023-12-20T07:15:17;106412.53;;;6.57;28.10
56400;BME280;42298;53.638;9.876;2023-12-20T07:17:43;106394.00;;;6.56;28.07
56400;BME280;42298;53.638;9.876;2023-12-20T07:20:09;106371.91;;;6.58;28.18
56400;BME280;42298;53.638;9.876;2023-12-20T07:22:36;106348.97;;;6.56;28.32
56400;BME280;42298;53.638;9.876;2023-12-20T07:25:01;106329.53;;;6.58;28.08
56400;BME280;42298;53.638;9.876;2023-12-20T07:27:26;106318.94;;;6.60;28.17
56400;BME280;42298;53.638;9.876;2023-12-20T07:29:52;106293.28;;;6.59;28.28
56400;BME280;42298;53.638;9.876;2023-12-20T07:32:17;106270.31;;;6.59;28.14
56400;BME280;42298;53.638;9.876;2023-12-20T07:34:43;106249.13;;;6.61;28.30
56400;BME280;42298;53.638;9.876;2023-12-20T07:37:08;106223.50;;;6.61;28.34
56400;BME280;42298;53.638;9.876;2023-12-20T07:39:35;106201.41;;;6.64;28.45
56400;BME280;42298;53.638;9.876;2023-12-20T07:42:01;106156.38;;;6.62;28.64
56400;BME280;42298;53.638;9.876;2023-12-20T07:44:27;106113.97;;;6.61;28.33
56400;BME280;42298;53.638;9.876;2023-12-20T07:46:53;106115.75;;;6.65;28.54
56400;BME280;42298;53.638;9.876;2023-12-20T07:49:19;106101.63;;;6.65;28.55
56400;BME280;42298;53.638;9.876;2023-12-20T07:51:44;106087.47;;;6.64;28.36
56400;BME280;42298;53.638;9.876;2023-12-20T07:54:10;106075.09;;;6.66;28.47
56400;BME280;42298;53.638;9.876;2023-12-20T07:56:35;106056.56;;;6.65;28.61
56400;BME280;42298;53.638;9.876;2023-12-20T07:59:01;106030.06;;;6.63;28.51
56400;BME280;42298;53.638;9.876;2023-12-20T08:01:26;106039.75;;;6.66;28.46
56400;BME280;42298;53.638;9.876;2023-12-20T08:03:52;106046.81;;;6.70;28.67
56400;BME280;42298;53.638;9.876;2023-12-20T08:06:17;106006.16;;;6.71;28.79
56400;BME280;42298;53.638;9.876;2023-12-20T08:08:43;105977.88;;;6.76;28.73
56400;BME280;42298;53.638;9.876;2023-12-20T08:11:08;105931.00;;;6.79;29.04
56400;BME280;42298;53.638;9.876;2023-12-20T08:13:34;105869.19;;;6.80;29.05
56400;BME280;42298;53.638;9.876;2023-12-20T08:15:59;105850.63;;;6.80;28.92
56400;BME280;42298;53.638;9.876;2023-12-20T08:18:24;105823.25;;;6.80;29.00
56400;BME280;42298;53.638;9.876;2023-12-20T08:20:50;105800.31;;;6.73;28.86
56400;BME280;42298;53.638;9.876;2023-12-20T08:23:18;105817.06;;;6.75;28.95
56400;BME280;42298;53.638;9.876;2023-12-20T08:25:43;105877.13;;;6.82;28.51
56400;BME280;42298;53.638;9.876;2023-12-20T08:28:09;105893.91;;;6.79;28.46
56400;BME280;42298;53.638;9.876;2023-12-20T08:30:34;105923.03;;;6.87;28.67
56400;BME280;42298;53.638;9.876;2023-12-20T08:33:00;105924.78;;;6.88;28.78
56400;BME280;42298;53.638;9.876;2023-12-20T08:35:25;105910.63;;;6.92;28.82
56400;BME280;42298;53.638;9.876;2023-12-20T08:37:51;105884.09;;;6.95;28.71
56400;BME280;42298;53.638;9.876;2023-12-20T08:40:16;105876.13;;;6.98;28.76
56400;BME280;42298;53.638;9.876;2023-12-20T08:42:41;105854.00;;;7.01;28.77
56400;BME280;42298;53.638;9.876;2023-12-20T08:45:07;105848.69;;;7.02;28.82
56400;BME280;42298;53.638;9.876;2023-12-20T08:47:32;105857.50;;;7.01;28.73
56400;BME280;42298;53.638;9.876;2023-12-20T08:49:58;105849.59;;;6.98;28.75
56400;BME280;42298;53.638;9.876;2023-12-20T08:52:25;105884.91;;;7.07;28.71
56400;BME280;42298;53.638;9.876;2023-12-20T08:54:52;105884.03;;;7.01;28.53
56400;BME280;42298;53.638;9.876;2023-12-20T08:57:19;105910.53;;;7.01;28.55
56400;BME280;42298;53.638;9.876;2023-12-20T08:59:47;105934.44;;;6.98;28.37
56400;BME280;42298;53.638;9.876;2023-12-20T09:02:14;105957.44;;;6.96;28.41
56400;BME280;42298;53.638;9.876;2023-12-20T09:04:39;105983.06;;;6.93;28.29
56400;BME280;42298;53.638;9.876;2023-12-20T09:07:04;106012.28;;;6.91;28.26
56400;BME280;42298;53.638;9.876;2023-12-20T09:09:30;106035.25;;;6.88;28.20
56400;BME280;42298;53.638;9.876;2023-12-20T09:11:57;106070.59;;;6.88;28.18
56400;BME280;42298;53.638;9.876;2023-12-20T09:14:23;106126.28;;;6.83;28.04
56400;BME280;42298;53.638;9.876;2023-12-20T09:16:48;106199.63;;;6.88;27.88
56400;BME280;42298;53.638;9.876;2023-12-20T09:19:17;106247.34;;;6.78;27.56
56400;BME280;42298;53.638;9.876;2023-12-20T09:21:43;106261.50;;;6.70;27.72
56400;BME280;42298;53.638;9.876;2023-12-20T09:24:08;106242.97;;;6.56;27.92
56400;BME280;42298;53.638;9.876;2023-12-20T09:26:35;106220.00;;;6.47;28.48
56400;BME280;42298;53.638;9.876;2023-12-20T09:29:00;106184.66;;;6.39;28.59
56400;BME280;42298;53.638;9.876;2023-12-20T09:31:25;106160.81;;;6.34;28.42
56400;BME280;42298;53.638;9.876;2023-12-20T09:33:51;106135.22;;;6.30;28.59
56400;BME280;42298;53.638;9.876;2023-12-20T09:36:16;106116.69;;;6.26;28.58
56400;BME280;42298;53.638;9.876;2023-12-20T09:38:41;106123.75;;;6.27;28.57
56400;BME280;42298;53.638;9.876;2023-12-20T09:41:07;106151.09;;;6.30;28.56
56400;BME280;42298;53.638;9.876;2023-12-20T09:43:35;106146.72;;;6.29;28.34
56400;BME280;42298;53.638;9.876;2023-12-20T09:46:05;106157.31;;;6.29;28.41
56400;BME280;42298;53.638;9.876;2023-12-20T09:48:33;106137.88;;;6.24;28.79
56400;BME280;42298;53.638;9.876;2023-12-20T09:50:58;106044.31;;;6.19;29.33
56400;BME280;42298;53.638;9.876;2023-12-20T09:53:25;105920.75;;;6.13;29.38
56400;BME280;42298;53.638;9.876;2023-12-20T09:55:57;105801.63;;;6.04;29.95
56400;BME280;42298;53.638;9.876;2023-12-20T09:58:24;105649.03;;;5.97;30.27
56400;BME280;42298;53.638;9.876;2023-12-20T10:00:49;105590.78;;;5.94;30.55
56400;BME280;42298;53.638;9.876;2023-12-20T10:03:15;105529.91;;;5.94;30.60
56400;BME280;42298;53.638;9.876;2023-12-20T10:05:43;105454.94;;;5.90;30.85
56400;BME280;42298;53.638;9.876;2023-12-20T10:08:09;105405.53;;;5.91;30.96
56400;BME280;42298;53.638;9.876;2023-12-20T10:10:35;105380.81;;;5.95;30.70
56400;BME280;42298;53.638;9.876;2023-12-20T10:13:08;105339.34;;;5.92;31.07
56400;BME280;42298;53.638;9.876;2023-12-20T10:15:34;105279.34;;;5.93;31.27
56400;BME280;42298;53.638;9.876;2023-12-20T10:18:04;105202.66;;;5.91;31.32
56400;BME280;42298;53.638;9.876;2023-12-20T10:20:30;105179.66;;;5.95;31.32
56400;BME280;42298;53.638;9.876;2023-12-20T10:22:56;105082.69;;;5.89;31.61
56400;BME280;42298;53.638;9.876;2023-12-20T10:25:22;104985.75;;;5.84;31.90
56400;BME280;42298;53.638;9.876;2023-12-20T10:27:50;104923.03;;;5.89;31.99
56400;BME280;42298;53.638;9.876;2023-12-20T10:30:33;104894.84;;;5.86;31.82
56400;BME280;42298;53.638;9.876;2023-12-20T10:32:58;104851.59;;;5.89;31.75
56400;BME280;42298;53.638;9.876;2023-12-20T10:35:24;104812.81;;;5.88;31.93
56400;BME280;42298;53.638;9.876;2023-12-20T10:37:50;104802.13;;;5.92;31.90
56400;BME280;42298;53.638;9.876;2023-12-20T10:40:22;104796.84;;;5.92;31.87
56400;BME280;42298;53.638;9.876;2023-12-20T10:42:48;104790.53;;;5.99;31.87
56400;BME280;42298;53.638;9.876;2023-12-20T10:45:15;104764.06;;;5.99;31.90
56400;BME280;42298;53.638;9.876;2023-12-20T10:47:46;104741.19;;;5.98;31.82
56400;BME280;42298;53.638;9.876;2023-12-20T10:50:11;104730.63;;;5.97;31.92
56400;BME280;42298;53.638;9.876;2023-12-20T10:52:37;104737.69;;;5.96;31.80
56400;BME280;42298;53.638;9.876;2023-12-20T10:55:03;104748.28;;;5.95;31.89
56400;BME280;42298;53.638;9.876;2023-12-20T10:57:29;104764.13;;;5.98;31.83
56400;BME280;42298;53.638;9.876;2023-12-20T10:59:55;104787.94;;;5.98;31.70
56400;BME280;42298;53.638;9.876;2023-12-20T11:02:26;104856.78;;;5.96;31.39
56400;BME280;42298;53.638;9.876;2023-12-20T11:05:01;104909.75;;;5.93;31.31
56400;BME280;42298;53.638;9.876;2023-12-20T11:07:35;104989.13;;;5.93;31.01
56400;BME280;42298;53.638;9.876;2023-12-20T11:10:16;105117.84;;;5.99;30.77
56400;BME280;42298;53.638;9.876;2023-12-20T11:12:48;105177.91;;;5.94;30.56
56400;BME280;42298;53.638;9.876;2023-12-20T11:15:17;105275.81;;;5.97;30.21
56400;BME280;42298;53.638;9.876;2023-12-20T11:17:45;105313.81;;;5.91;30.19
56400;BME280;42298;53.638;9.876;2023-12-20T11:20:13;105344.75;;;5.83;30.57
56400;BME280;42298;53.638;9.876;2023-12-20T11:22:39;105319.34;;;5.70;30.65
56400;BME280;42298;53.638;9.876;2023-12-20T11:25:16;105282.41;;;5.60;31.22
56400;BME280;42298;53.638;9.876;2023-12-20T11:27:42;105191.72;;;5.49;31.20
56400;BME280;42298;53.638;9.876;2023-12-20T11:30:08;105138.91;;;5.42;31.33
56400;BME280;42298;53.638;9.876;2023-12-20T11:32:36;105100.19;;;5.37;31.38
56400;BME280;42298;53.638;9.876;2023-12-20T11:37:38;105120.16;;;5.60;31.07
56400;BME280;42298;53.638;9.876;2023-12-20T11:40:11;105128.06;;;5.65;31.11
56400;BME280;42298;53.638;9.876;2023-12-20T11:42:44;105123.63;;;5.65;30.97
56400;BME280;42298;53.638;9.876;2023-12-20T11:45:15;105167.66;;;5.69;30.69
56400;BME280;42298;53.638;9.876;2023-12-20T11:47:43;105268.09;;;5.78;30.30
56400;BME280;42298;53.638;9.876;2023-12-20T11:50:09;105376.47;;;5.88;30.03
56400;BME280;42298;53.638;9.876;2023-12-20T11:52:35;105505.22;;;5.92;29.61
56400;BME280;42298;53.638;9.876;2023-12-20T11:55:01;105614.63;;;5.94;29.49
56400;BME280;42298;53.638;9.876;2023-12-20T11:57:26;105709.03;;;5.95;29.29
56400;BME280;42298;53.638;9.876;2023-12-20T11:59:52;105807.84;;;5.97;29.10
56400;BME280;42298;53.638;9.876;2023-12-20T12:02:17;105897.84;;;5.98;28.81
56400;BME280;42298;53.638;9.876;2023-12-20T12:04:42;106000.19;;;6.09;28.56
56400;BME280;42298;53.638;9.876;2023-12-20T12:07:08;106055.78;;;6.12;28.28
56400;BME280;42298;53.638;9.876;2023-12-20T12:09:34;106122.88;;;6.12;28.24
56400;BME280;42298;53.638;9.876;2023-12-20T12:11:59;106189.06;;;6.15;28.20
56400;BME280;42298;53.638;9.876;2023-12-20T12:14:25;106254.41;;;6.21;27.93
56400;BME280;42298;53.638;9.876;2023-12-20T12:16:50;106319.75;;;6.28;27.92
56400;BME280;42298;53.638;9.876;2023-12-20T12:19:22;106359.50;;;6.31;27.87
56400;BME280;42298;53.638;9.876;2023-12-20T12:21:48;106399.22;;;6.34;27.62
56400;BME280;42298;53.638;9.876;2023-12-20T12:24:14;106461.97;;;6.48;27.56
56400;BME280;42298;53.638;9.876;2023-12-20T12:26:40;106515.00;;;6.57;27.43
56400;BME280;42298;53.638;9.876;2023-12-20T12:29:08;106559.22;;;6.66;27.51
56400;BME280;42298;53.638;9.876;2023-12-20T12:31:34;106545.09;;;6.70;27.54
56400;BME280;42298;53.638;9.876;2023-12-20T12:34:01;106512.44;;;6.77;27.79
56400;BME280;42298;53.638;9.876;2023-12-20T12:36:28;106448.81;;;6.86;28.20
56400;BME280;42298;53.638;9.876;2023-12-20T12:38:56;106348.97;;;6.88;29.32
56400;BME280;42298;53.638;9.876;2023-12-20T12:41:21;106145.72;;;6.84;30.50
56400;BME280;42298;53.638;9.876;2023-12-20T12:43:47;105884.19;;;6.83;30.91
56400;BME280;42298;53.638;9.876;2023-12-20T12:46:12;105665.91;;;6.84;31.69
56400;BME280;42298;53.638;9.876;2023-12-20T12:48:37;105395.63;;;6.79;32.05
56400;BME280;42298;53.638;9.876;2023-12-20T12:51:04;105124.50;;;6.76;32.91
56400;BME280;42298;53.638;9.876;2023-12-20T12:53:29;104894.91;;;6.72;33.28
56400;BME280;42298;53.638;9.876;2023-12-20T12:55:54;104721.00;;;6.69;33.38